Time;durP1;ratioP1;P1;durP2;ratioP2;P2;SDS_P1;SDS_P2;PMS_P1;PMS_P2;Temp;Humidity;BMP_temperature;BMP_pressure;BME280_temperature;BME280_humidity;BME280_pressure;Samples;Min_cycle;Max_cycle;Signal;HPM_P1;HPM_P2
2022/01/06 00:04:42;;;;;;;6.50;2.30;;;23.80;51.00;;;;;;220282;1268;22551;-62
2022/01/06 00:09:48;;;;;;;4.70;2.10;;;23.80;50.80;;;;;;220082;1267;23040;-60
2022/01/06 00:25:26;;;;;;;5.70;2.30;;;23.80;50.60;;;;;;220107;1268;24323;-61
2022/01/06 00:30:37;;;;;;;4.00;1.80;;;23.80;50.70;;;;;;220409;1267;22550;-60
2022/01/06 00:35:46;;;;;;;3.50;1.70;;;23.80;50.60;;;;;;220552;1268;25330;-60
2022/01/06 00:40:50;;;;;;;4.90;2.00;;;23.80;49.90;;;;;;220145;1265;24227;-59
2022/01/06 00:45:57;;;;;;;4.70;1.90;;;23.80;50.30;;;;;;220401;1267;22556;-61
2022/01/06 00:51:12;;;;;;;4.40;2.20;;;23.80;50.20;;;;;;220309;1265;25455;-60
2022/01/06 00:56:16;;;;;;;4.60;1.70;;;23.90;50.10;;;;;;220316;1265;22572;-61
2022/01/06 01:01:20;;;;;;;3.00;1.60;;;23.80;50.10;;;;;;220125;1267;24261;-60
2022/01/06 01:06:26;;;;;;;4.60;1.70;;;23.80;50.00;;;;;;220088;1267;22571;-61
2022/01/06 01:11:30;;;;;;;3.80;1.90;;;23.80;50.00;;;;;;220379;1265;22814;-60
2022/01/06 01:16:34;;;;;;;3.30;1.80;;;23.80;50.00;;;;;;220174;1265;22529;-60
2022/01/06 01:21:38;;;;;;;4.10;1.70;;;23.80;49.90;;;;;;220216;1265;25574;-61
2022/01/06 01:26:42;;;;;;;3.80;1.60;;;23.90;50.30;;;;;;220409;1265;22553;-60
2022/01/06 01:31:49;;;;;;;3.10;1.60;;;23.80;49.90;;;;;;220089;1265;24779;-61
2022/01/06 01:36:55;;;;;;;4.40;1.60;;;23.80;49.80;;;;;;220397;1265;25618;-61
2022/01/06 01:42:01;;;;;;;3.10;1.40;;;23.80;49.80;;;;;;220286;1267;22538;-60
2022/01/06 01:47:13;;;;;;;3.10;1.40;;;23.80;49.70;;;;;;220499;1265;22528;-59
2022/01/06 01:52:23;;;;;;;3.10;1.60;;;23.80;49.70;;;;;;220568;1265;24380;-60
2022/01/06 01:57:26;;;;;;;4.10;1.80;;;23.90;49.60;;;;;;220456;1265;22538;-60
2022/01/06 02:02:30;;;;;;;2.80;1.60;;;23.80;49.60;;;;;;220387;1265;22831;-61
2022/01/06 02:07:36;;;;;;;2.60;1.30;;;23.90;49.90;;;;;;220361;1267;22688;-60
2022/01/06 02:12:41;;;;;;;3.50;1.40;;;23.90;49.50;;;;;;220428;1265;22594;-59
2022/01/06 02:17:47;;;;;;;4.10;1.90;;;23.90;49.60;;;;;;220496;1265;22822;-61
2022/01/06 02:22:59;;;;;;;2.60;1.60;;;23.90;49.90;;;;;;220426;1268;22531;-62
2022/01/06 02:28:12;;;;;;;5.00;1.40;;;23.90;49.60;;;;;;220338;1268;25517;-62
2022/01/06 02:33:19;;;;;;;2.70;1.30;;;23.90;49.50;;;;;;220476;1265;22766;-61
2022/01/06 02:38:23;;;;;;;3.20;1.40;;;23.90;49.50;;;;;;220253;1268;24285;-61
2022/01/06 02:43:30;;;;;;;3.40;1.50;;;23.80;49.40;;;;;;220149;1267;22547;-60
2022/01/06 02:48:34;;;;;;;2.70;1.20;;;23.90;49.50;;;;;;220635;1265;25564;-59
2022/01/06 02:53:37;;;;;;;3.40;1.60;;;23.90;49.40;;;;;;220351;1265;23091;-59
2022/01/06 02:58:41;;;;;;;4.50;1.30;;;23.90;49.40;;;;;;220277;1265;24262;-60
2022/01/06 03:03:44;;;;;;;2.70;1.40;;;23.90;49.50;;;;;;220172;1267;22540;-58
2022/01/06 03:08:48;;;;;;;3.30;1.40;;;23.90;49.40;;;;;;220409;1268;24240;-62
2022/01/06 03:13:53;;;;;;;4.90;1.50;;;23.90;49.30;;;;;;220415;1265;25397;-60
2022/01/06 03:18:57;;;;;;;4.10;1.50;;;23.90;49.70;;;;;;220485;1265;24250;-60
2022/01/06 03:24:01;;;;;;;3.20;1.50;;;24.00;49.40;;;;;;220352;1265;22553;-60
2022/01/06 03:29:04;;;;;;;2.80;1.60;;;24.00;49.30;;;;;;220209;1267;24322;-61
2022/01/06 03:34:08;;;;;;;2.20;1.20;;;23.90;49.30;;;;;;220351;1265;22661;-59
2022/01/06 03:39:12;;;;;;;2.80;1.20;;;23.90;49.60;;;;;;220582;1265;26206;-60
2022/01/06 03:44:16;;;;;;;3.00;1.60;;;23.90;49.30;;;;;;220279;1268;24223;-59
2022/01/06 03:49:20;;;;;;;2.50;1.10;;;23.90;49.70;;;;;;220680;1265;24301;-60
2022/01/06 03:54:23;;;;;;;3.80;1.50;;;23.90;49.40;;;;;;220265;1265;22616;-60
2022/01/06 03:59:27;;;;;;;3.30;1.30;;;23.90;49.40;;;;;;220400;1268;24412;-60
2022/01/06 04:04:31;;;;;;;3.20;1.30;;;23.90;49.40;;;;;;220421;1265;24303;-61
2022/01/06 04:09:35;;;;;;;5.40;1.10;;;23.90;49.30;;;;;;220405;1265;22534;-61
2022/01/06 04:14:39;;;;;;;2.70;1.10;;;23.90;49.30;;;;;;220154;1268;22548;-59
2022/01/06 04:19:43;;;;;;;2.50;1.20;;;23.90;49.30;;;;;;220686;1269;22557;-62
2022/01/06 04:24:46;;;;;;;3.80;1.20;;;23.90;49.30;;;;;;220098;1268;22611;-60
2022/01/06 04:29:50;;;;;;;2.50;1.40;;;23.90;49.80;;;;;;220315;1265;22548;-59
2022/01/06 04:34:54;;;;;;;2.90;1.10;;;23.90;49.20;;;;;;220274;1265;22553;-61
2022/01/06 04:39:58;;;;;;;4.50;1.60;;;23.90;49.20;;;;;;220450;1265;22560;-61
2022/01/06 04:45:02;;;;;;;3.30;1.20;;;24.00;49.40;;;;;;220690;1265;23483;-61
2022/01/06 04:50:06;;;;;;;2.00;1.00;;;24.00;49.20;;;;;;220390;1265;22557;-60
2022/01/06 04:55:10;;;;;;;2.90;1.30;;;24.00;49.70;;;;;;220621;1265;25544;-61
2022/01/06 05:00:14;;;;;;;3.70;1.20;;;24.00;49.50;;;;;;220440;1265;25463;-60
2022/01/06 05:05:17;;;;;;;2.60;1.10;;;24.00;49.20;;;;;;220801;1265;25487;-61
2022/01/06 05:10:20;;;;;;;3.10;1.40;;;24.00;49.30;;;;;;220295;1265;22763;-60
2022/01/06 05:15:24;;;;;;;2.00;1.10;;;24.00;49.20;;;;;;220541;1265;24243;-59
2022/01/06 05:20:35;;;;;;;4.00;1.60;;;24.00;49.10;;;;;;220507;1265;26839;-59
2022/01/06 05:25:39;;;;;;;2.60;1.00;;;23.90;49.00;;;;;;220270;1265;22690;-60
2022/01/06 05:30:43;;;;;;;2.90;1.00;;;24.00;49.10;;;;;;220859;1265;22735;-60
2022/01/06 05:35:50;;;;;;;2.80;1.20;;;23.90;49.20;;;;;;220475;1265;25419;-59
2022/01/06 05:40:54;;;;;;;2.50;1.10;;;23.90;49.50;;;;;;220748;1265;23047;-59
2022/01/06 05:45:58;;;;;;;2.50;1.00;;;23.90;49.20;;;;;;220449;1265;24224;-61
2022/01/06 05:51:02;;;;;;;7.80;1.20;;;23.90;49.10;;;;;;220542;1265;22555;-61
2022/01/06 05:56:05;;;;;;;2.00;0.90;;;23.90;49.10;;;;;;220149;1268;159483;-60
2022/01/06 06:01:09;;;;;;;1.90;0.90;;;23.90;49.10;;;;;;220556;1265;24225;-59
2022/01/06 06:06:13;;;;;;;1.90;1.00;;;24.00;49.00;;;;;;220107;1268;22557;-58
2022/01/06 06:11:16;;;;;;;2.10;0.90;;;23.90;49.10;;;;;;220478;1265;25484;-60
2022/01/06 06:16:20;;;;;;;3.30;1.30;;;24.00;49.20;;;;;;220563;1265;22572;-61
2022/01/06 06:21:24;;;;;;;2.00;1.10;;;24.00;49.50;;;;;;220572;1265;22531;-60
2022/01/06 06:26:32;;;;;;;1.70;1.00;;;24.00;49.10;;;;;;220499;1265;22665;-61
2022/01/06 06:31:35;;;;;;;2.60;1.20;;;24.00;49.40;;;;;;220511;1268;25508;-60
2022/01/06 06:36:39;;;;;;;2.50;1.00;;;23.90;49.20;;;;;;220215;1268;22557;-61
2022/01/06 06:41:43;;;;;;;2.70;1.00;;;24.00;49.30;;;;;;220373;1265;22532;-62
2022/01/06 06:46:46;;;;;;;1.30;0.80;;;24.00;49.10;;;;;;220021;1267;26708;-60
2022/01/06 06:51:50;;;;;;;2.30;1.10;;;24.00;49.00;;;;;;220527;1265;22603;-60
2022/01/06 06:56:54;;;;;;;2.40;1.00;;;24.00;49.00;;;;;;220065;1267;22553;-59
2022/01/06 07:01:58;;;;;;;2.90;1.10;;;24.00;49.00;;;;;;220751;1265;22528;-60
2022/01/06 07:07:02;;;;;;;1.30;0.80;;;24.00;49.00;;;;;;220485;1268;22539;-60
2022/01/06 07:12:12;;;;;;;1.30;0.80;;;24.00;49.00;;;;;;220821;1265;24315;-60
2022/01/06 07:17:28;;;;;;;2.90;1.20;;;23.90;49.00;;;;;;220389;1265;22564;-62
2022/01/06 07:22:37;;;;;;;2.30;0.90;;;23.90;49.00;;;;;;220412;1268;22561;-60
2022/01/06 07:27:41;;;;;;;1.80;0.90;;;24.00;49.20;;;;;;220913;1265;27631;-61
2022/01/06 07:32:50;;;;;;;2.10;1.00;;;24.00;48.80;;;;;;220666;1268;22540;-59
2022/01/06 07:37:53;;;;;;;2.90;1.10;;;24.10;49.30;;;;;;220377;1268;24376;-59
2022/01/06 07:42:57;;;;;;;7.40;0.90;;;24.10;49.30;;;;;;220581;1265;25520;-61
2022/01/06 07:48:03;;;;;;;2.30;0.90;;;24.10;49.20;;;;;;220548;1265;22721;-59
2022/01/06 07:53:07;;;;;;;3.60;1.10;;;24.10;49.60;;;;;;220987;1265;23056;-62
2022/01/06 07:58:13;;;;;;;3.90;1.10;;;24.10;49.30;;;;;;220308;1268;22553;-62
2022/01/06 08:03:20;;;;;;;3.00;1.00;;;24.00;49.20;;;;;;220702;1265;22774;-60
2022/01/06 08:08:24;;;;;;;2.80;1.20;;;24.00;49.20;;;;;;220554;1265;24309;-62
2022/01/06 08:13:29;;;;;;;36.20;4.10;;;23.90;49.30;;;;;;220757;1265;22800;-61
2022/01/06 08:18:35;;;;;;;11.60;1.70;;;23.90;50.10;;;;;;220843;1265;25264;-61
2022/01/06 08:23:44;;;;;;;3.80;1.40;;;24.00;51.10;;;;;;220745;1265;22567;-60
2022/01/06 08:28:51;;;;;;;9.40;1.40;;;23.90;50.60;;;;;;220215;1265;25296;-60
2022/01/06 08:33:58;;;;;;;6.30;1.30;;;23.90;50.00;;;;;;220492;1265;22550;-61
2022/01/06 08:39:02;;;;;;;6.00;1.30;;;23.90;49.60;;;;;;220755;1265;22567;-60
2022/01/06 08:44:06;;;;;;;6.80;1.40;;;24.00;49.30;;;;;;220599;1265;24260;-61
2022/01/06 08:49:11;;;;;;;3.50;1.60;;;23.90;48.90;;;;;;220513;1265;24385;-61
2022/01/06 08:54:16;;;;;;;5.00;1.40;;;24.00;48.80;;;;;;220896;1265;22581;-61
2022/01/06 08:59:27;;;;;;;5.20;1.40;;;23.90;48.60;;;;;;220693;1265;22562;-61
2022/01/06 09:04:40;;;;;;;3.00;1.10;;;23.90;48.90;;;;;;220835;1265;23040;-60
2022/01/06 09:09:54;;;;;;;3.90;1.20;;;23.90;48.00;;;;;;220831;1265;22537;-61
2022/01/06 09:14:58;;;;;;;5.50;1.10;;;23.90;47.70;;;;;;220368;1265;23129;-61
2022/01/06 09:20:05;;;;;;;7.60;1.60;;;23.90;47.40;;;;;;220381;1267;22617;-62
2022/01/06 09:25:15;;;;;;;11.50;1.60;;;23.90;48.20;;;;;;220325;1268;22985;-60
2022/01/06 09:30:23;;;;;;;10.60;1.70;;;24.00;49.30;;;;;;220324;1267;26135;-62
2022/01/06 09:35:27;;;;;;;6.90;1.50;;;24.10;49.50;;;;;;220395;1267;22556;-62
2022/01/06 09:40:31;;;;;;;5.20;1.10;;;24.00;49.20;;;;;;220234;1266;22552;-62
2022/01/06 09:45:36;;;;;;;8.80;2.10;;;24.00;49.00;;;;;;220353;1267;25243;-63
2022/01/06 09:50:42;;;;;;;6.80;1.40;;;24.00;48.70;;;;;;220586;1267;25627;-61
2022/01/06 09:55:55;;;;;;;14.00;1.60;;;24.00;49.00;;;;;;220677;1266;23544;-61
2022/01/06 10:00:59;;;;;;;13.90;2.20;;;24.00;48.40;;;;;;220857;1267;24212;-60
2022/01/06 10:06:15;;;;;;;6.70;1.30;;;24.00;48.10;;;;;;220663;1265;23644;-60
2022/01/06 10:11:25;;;;;;;8.10;1.20;;;24.10;47.70;;;;;;220527;1265;25261;-61
2022/01/06 10:16:29;;;;;;;6.30;1.20;;;24.10;47.50;;;;;;220112;1267;25356;-61
2022/01/06 10:21:45;;;;;;;8.90;1.60;;;24.10;47.40;;;;;;220185;1267;22806;-62
2022/01/06 10:26:57;;;;;;;6.30;1.70;;;24.20;48.10;;;;;;220346;1265;22544;-62
2022/01/06 10:32:20;;;;;;;10.60;1.50;;;24.10;47.50;;;;;;220443;1265;25469;-62
2022/01/06 10:37:38;;;;;;;5.00;1.20;;;23.90;47.60;;;;;;220449;1267;22606;-62
2022/01/06 10:42:54;;;;;;;5.70;1.70;;;23.80;47.90;;;;;;220380;1265;22590;-62
2022/01/06 10:48:01;;;;;;;8.90;1.30;;;23.60;48.10;;;;;;220342;1265;22688;-63
2022/01/06 10:53:15;;;;;;;8.50;1.30;;;23.50;48.30;;;;;;220109;1267;22532;-62
2022/01/06 10:58:27;;;;;;;6.30;1.30;;;23.50;48.00;;;;;;220492;1265;25337;-61
2022/01/06 11:03:33;;;;;;;6.80;1.70;;;23.40;48.20;;;;;;220317;1267;25372;-63
2022/01/06 11:08:41;;;;;;;6.40;1.30;;;23.40;47.90;;;;;;220305;1265;23302;-62
2022/01/06 11:13:49;;;;;;;4.00;1.40;;;23.30;48.50;;;;;;220251;1267;25375;-61
2022/01/06 11:18:57;;;;;;;5.20;1.40;;;23.30;48.50;;;;;;220220;1265;22598;-60
2022/01/06 11:24:14;;;;;;;4.90;1.20;;;23.20;48.20;;;;;;220498;1265;22623;-61
2022/01/06 11:29:27;;;;;;;4.30;1.20;;;23.10;48.20;;;;;;220811;1265;24204;-62
2022/01/06 11:34:38;;;;;;;10.50;1.30;;;23.10;48.20;;;;;;220583;1265;24266;-62
2022/01/06 11:39:45;;;;;;;6.50;1.20;;;23.10;48.10;;;;;;220426;1265;24260;-62
2022/01/06 11:44:58;;;;;;;6.90;1.50;;;23.00;48.00;;;;;;220545;1265;22537;-62
2022/01/06 11:50:13;;;;;;;7.50;1.40;;;23.00;47.80;;;;;;220832;1265;22554;-60
2022/01/06 11:55:17;;;;;;;;;;;23.00;47.90;;;;;;220707;1265;22567;-62
2022/01/06 12:00:29;;;;;;;6.50;1.20;;;22.90;47.90;;;;;;220127;1265;25330;-60
2022/01/06 12:06:00;;;;;;;4.20;1.20;;;22.80;47.80;;;;;;221976;1265;22683;-60
2022/01/06 12:11:33;;;;;;;4.10;1.10;;;22.70;47.70;;;;;;220686;1264;25377;-61
2022/01/06 12:16:46;;;;;;;5.50;1.30;;;22.60;47.90;;;;;;220635;1265;24263;-59
2022/01/06 12:22:07;;;;;;;4.10;1.00;;;22.70;48.00;;;;;;219280;1265;23625;-58
2022/01/06 12:27:27;;;;;;;4.60;1.10;;;22.70;47.50;;;;;;219409;1265;25394;-54
2022/01/06 12:32:35;;;;;;;2.50;1.40;;;23.00;46.80;;;;;;222894;1265;25794;-53
2022/01/06 12:37:41;;;;;;;2.60;0.90;;;23.30;46.40;;;;;;219665;1265;22557;-55
2022/01/06 12:42:47;;;;;;;6.20;1.20;;;23.50;46.00;;;;;;220395;1265;22531;-50
2022/01/06 12:47:51;;;;;;;6.40;1.30;;;23.60;45.80;;;;;;220642;1265;25378;-59
2022/01/06 12:52:55;;;;;;;4.00;1.50;;;23.70;46.30;;;;;;220353;1265;24202;-60
2022/01/06 12:58:02;;;;;;;5.40;1.30;;;23.70;45.60;;;;;;220458;1265;23029;-59
2022/01/06 13:03:09;;;;;;;2.80;0.90;;;23.80;45.50;;;;;;220714;1265;24725;-60
2022/01/06 13:08:15;;;;;;;5.20;1.30;;;23.70;45.80;;;;;;220799;1265;23291;-59
2022/01/06 13:13:24;;;;;;;3.00;1.10;;;23.80;45.70;;;;;;220426;1265;24295;-60
2022/01/06 13:18:30;;;;;;;3.80;1.30;;;23.80;45.60;;;;;;220406;1264;22541;-59
2022/01/06 13:23:48;;;;;;;3.30;0.90;;;23.70;45.80;;;;;;220423;1264;22579;-58
2022/01/06 13:28:57;;;;;;;2.60;1.10;;;23.80;45.60;;;;;;220342;1264;26719;-60
2022/01/06 13:34:21;;;;;;;3.70;1.10;;;23.70;45.70;;;;;;220355;1265;22554;-59
2022/01/06 13:39:37;;;;;;;5.00;1.30;;;23.80;45.80;;;;;;220456;1264;22646;-59
2022/01/06 13:44:56;;;;;;;2.50;1.10;;;23.80;45.90;;;;;;220630;1265;22557;-60
2022/01/06 13:55:32;;;;;;;2.40;1.00;;;23.80;45.60;;;;;;220473;1267;26683;-59
2022/01/06 14:00:38;;;;;;;2.50;1.20;;;23.80;45.60;;;;;;220321;1265;23183;-60
2022/01/06 14:05:45;;;;;;;3.40;1.00;;;23.80;45.50;;;;;;220566;1265;22620;-59
2022/01/06 14:10:49;;;;;;;2.70;1.00;;;23.80;45.50;;;;;;220494;1265;22531;-59
2022/01/06 14:15:58;;;;;;;2.90;0.90;;;23.80;45.60;;;;;;220399;1265;22650;-60
2022/01/06 14:21:13;;;;;;;2.80;1.20;;;23.80;45.50;;;;;;220370;1265;24212;-59
2022/01/06 14:26:24;;;;;;;2.20;1.10;;;23.80;45.90;;;;;;220597;1264;24412;-61
2022/01/06 14:31:31;;;;;;;2.50;1.00;;;23.80;45.50;;;;;;220520;1265;22536;-58
2022/01/06 14:36:38;;;;;;;4.50;1.30;;;23.80;45.50;;;;;;220668;1267;22573;-59
2022/01/06 14:41:44;;;;;;;2.30;0.90;;;23.80;45.50;;;;;;220811;1265;22553;-59
2022/01/06 14:46:49;;;;;;;2.50;1.10;;;23.80;45.50;;;;;;220488;1265;22557;-60
2022/01/06 14:52:02;;;;;;;3.70;1.20;;;23.90;45.40;;;;;;220486;1265;22709;-59
2022/01/06 14:57:14;;;;;;;2.90;1.10;;;23.80;45.40;;;;;;220395;1265;24326;-59
2022/01/06 15:02:19;;;;;;;2.20;1.10;;;23.80;45.40;;;;;;220552;1265;25500;-58
2022/01/06 15:07:35;;;;;;;1.80;1.00;;;23.90;45.40;;;;;;220307;1265;22550;-61
2022/01/06 15:12:42;;;;;;;2.70;1.10;;;23.90;45.50;;;;;;220645;1265;24202;-58
2022/01/06 15:17:49;;;;;;;2.00;1.00;;;23.80;45.80;;;;;;220724;1265;22581;-60
2022/01/06 15:22:59;;;;;;;2.50;1.20;;;23.80;45.40;;;;;;220518;1265;23194;-60
2022/01/06 15:28:17;;;;;;;2.70;1.00;;;23.80;45.40;;;;;;220692;1265;22567;-59
2022/01/06 15:33:23;;;;;;;;;;;23.90;45.50;;;;;;220710;1265;22521;-59
2022/01/06 15:38:31;;;;;;;2.60;1.40;;;23.80;45.40;;;;;;220895;1263;22550;-60
2022/01/06 15:43:35;;;;;;;2.90;1.20;;;23.80;45.50;;;;;;220786;1264;24261;-58
2022/01/06 15:49:01;;;;;;;2.30;1.10;;;23.80;45.50;;;;;;220249;1265;22547;-60
2022/01/06 15:54:06;;;;;;;2.10;1.00;;;23.80;45.50;;;;;;220780;1265;24224;-60
2022/01/06 15:59:21;;;;;;;2.10;1.00;;;23.80;45.40;;;;;;220416;1265;23769;-59
2022/01/06 16:09:54;;;;;;;3.20;1.20;;;23.90;45.50;;;;;;220405;1265;24383;-58
2022/01/06 16:15:02;;;;;;;2.60;1.30;;;23.90;44.90;;;;;;220312;1265;25461;-61
2022/01/06 16:20:09;;;;;;;3.60;1.20;;;23.90;45.10;;;;;;220155;1267;24370;-61
2022/01/06 16:25:19;;;;;;;4.50;1.00;;;23.90;45.90;;;;;;220123;1267;22648;-62
2022/01/06 16:30:35;;;;;;;;;;;23.90;45.70;;;;;;220508;1265;24389;-59
2022/01/06 16:35:54;;;;;;;4.50;1.20;;;23.90;45.60;;;;;;221305;1265;24276;-56
2022/01/06 16:41:05;;;;;;;5.30;1.50;;;23.90;45.90;;;;;;220778;1265;25499;-59
2022/01/06 16:46:31;;;;;;;7.60;1.60;;;24.00;46.10;;;;;;220197;1267;22608;-59
2022/01/06 16:51:36;;;;;;;6.80;1.10;;;24.00;46.30;;;;;;220762;1265;22571;-59
2022/01/06 16:56:54;;;;;;;10.10;1.30;;;24.10;46.50;;;;;;220794;1265;22598;-59
2022/01/06 17:02:10;;;;;;;6.80;1.20;;;24.10;47.10;;;;;;220698;1265;22529;-59
2022/01/06 17:07:25;;;;;;;3.50;1.40;;;24.10;46.90;;;;;;220316;1267;24880;-58
2022/01/06 17:12:46;;;;;;;4.80;1.30;;;24.10;47.10;;;;;;220177;1264;25462;-58
2022/01/06 17:17:57;;;;;;;3.20;1.10;;;24.10;46.60;;;;;;220302;1265;23909;-58
2022/01/06 17:23:39;;;;;;;4.80;1.10;;;24.10;46.50;;;;;;220371;1264;25602;-58
2022/01/06 17:29:14;;;;;;;4.30;0.90;;;24.10;46.50;;;;;;220343;1265;22573;-58
2022/01/06 17:34:38;;;;;;;4.20;1.10;;;24.10;46.40;;;;;;220952;1265;26623;-55
2022/01/06 17:40:07;;;;;;;4.50;1.10;;;24.20;45.90;;;;;;220810;1265;22578;-57
2022/01/06 17:45:22;;;;;;;2.50;1.00;;;24.10;45.90;;;;;;220709;1264;22603;-58
2022/01/06 17:50:37;;;;;;;6.60;1.30;;;23.90;45.80;;;;;;220523;1268;24265;-57
2022/01/06 17:55:58;;;;;;;4.30;1.40;;;23.80;45.80;;;;;;219465;1267;970448;-56
2022/01/06 18:01:20;;;;;;;4.60;1.10;;;23.70;45.70;;;;;;220428;1267;22701;-58
2022/01/06 18:06:39;;;;;;;3.90;1.20;;;23.60;45.80;;;;;;220506;1265;22835;-58
2022/01/06 18:11:54;;;;;;;5.40;1.40;;;23.50;45.30;;;;;;220747;1265;22534;-58
2022/01/06 18:17:08;;;;;;;4.80;1.50;;;23.30;45.30;;;;;;220284;1265;25399;-60
2022/01/06 18:22:33;;;;;;;7.80;1.70;;;23.30;45.70;;;;;;220656;1265;25771;-58
2022/01/06 18:27:48;;;;;;;4.40;1.80;;;23.20;45.60;;;;;;220411;1267;24309;-61
2022/01/06 18:32:59;;;;;;;6.70;2.10;;;23.10;45.60;;;;;;220207;1266;22892;-58
2022/01/06 18:38:11;;;;;;;6.00;2.40;;;23.00;45.70;;;;;;220553;1265;22540;-58
2022/01/06 18:43:22;;;;;;;5.20;2.00;;;22.90;45.00;;;;;;220786;1268;24448;-55
2022/01/06 18:48:30;;;;;;;5.80;1.90;;;22.80;45.30;;;;;;220455;1267;22735;-57
2022/01/06 18:53:44;;;;;;;3.60;2.00;;;22.70;45.20;;;;;;220483;1268;24223;-59
2022/01/06 18:59:06;;;;;;;4.30;2.10;;;22.60;45.60;;;;;;220503;1268;22537;-58
2022/01/06 19:04:18;;;;;;;4.10;1.80;;;22.50;45.70;;;;;;220379;1265;23049;-58
2022/01/06 19:09:32;;;;;;;4.10;1.80;;;22.40;45.70;;;;;;220620;1265;22529;-56
2022/01/06 19:15:20;;;;;;;4.70;1.70;;;22.30;46.00;;;;;;220410;1265;22539;-57
2022/01/06 19:20:35;;;;;;;5.90;2.10;;;22.30;47.30;;;;;;220317;1265;23026;-58
2022/01/06 19:25:44;;;;;;;4.80;2.00;;;22.50;47.00;;;;;;220465;1264;24377;-58
2022/01/06 19:31:17;;;;;;;11.40;2.00;;;22.80;46.30;;;;;;220635;1265;22716;-57
2022/01/06 19:36:28;;;;;;;8.10;3.10;;;22.90;46.10;;;;;;220374;1268;23321;-58
2022/01/06 19:41:41;;;;;;;13.20;1.90;;;23.20;46.70;;;;;;220063;1265;24234;-56
2022/01/06 19:47:03;;;;;;;7.90;1.80;;;23.40;45.90;;;;;;220230;1265;22555;-54
2022/01/06 19:52:17;;;;;;;4.80;1.80;;;23.60;45.30;;;;;;220224;1265;23152;-55
2022/01/06 19:57:43;;;;;;;4.10;1.90;;;23.70;44.60;;;;;;219860;1265;25650;-52
2022/01/06 20:02:54;;;;;;;4.30;1.70;;;23.80;44.30;;;;;;220229;1265;22549;-53
2022/01/06 20:07:59;;;;;;;4.50;1.60;;;23.90;44.00;;;;;;219732;1267;24305;-55
2022/01/06 20:13:11;;;;;;;3.60;1.80;;;23.90;43.80;;;;;;220346;1267;22538;-54
2022/01/06 20:18:34;;;;;;;4.80;2.10;;;23.90;43.70;;;;;;220037;1265;24299;-53
2022/01/06 20:23:42;;;;;;;7.60;1.70;;;24.00;43.30;;;;;;219978;1268;25687;-53
2022/01/06 20:29:10;;;;;;;;;;;24.00;43.00;;;;;;220194;1265;22567;-53
2022/01/06 20:34:53;;;;;;;3.90;1.70;;;24.00;42.90;;;;;;220269;1265;26550;-54
2022/01/06 20:39:58;;;;;;;3.70;1.60;;;24.00;43.50;;;;;;220204;1264;22561;-54
2022/01/06 20:45:08;;;;;;;6.70;1.60;;;23.80;43.90;;;;;;220487;1264;24321;-51
2022/01/06 20:56:27;;;;;;;4.60;1.70;;;23.80;44.40;;;;;;220527;1265;22610;-51
2022/01/06 21:01:56;;;;;;;6.00;1.90;;;23.80;44.60;;;;;;220092;1265;24214;-55
2022/01/06 21:07:18;;;;;;;4.40;1.90;;;23.70;45.00;;;;;;219845;1265;26685;-53
2022/01/06 21:12:43;;;;;;;4.10;1.90;;;23.70;44.30;;;;;;220325;1265;25515;-50
2022/01/06 21:18:01;;;;;;;8.20;1.80;;;23.80;44.90;;;;;;220136;1265;23095;-57
2022/01/06 21:23:16;;;;;;;4.00;2.00;;;23.80;44.70;;;;;;221132;1268;24427;-57
2022/01/06 21:28:31;;;;;;;6.30;1.90;;;23.90;44.80;;;;;;219954;1265;22550;-56
2022/01/06 21:34:01;;;;;;;8.00;2.20;;;23.90;44.70;;;;;;220553;1268;22542;-56
2022/01/06 21:39:21;;;;;;;4.80;2.20;;;23.90;44.70;;;;;;220237;1268;22667;-57
2022/01/06 21:45:20;;;;;;;7.60;2.50;;;24.00;45.00;;;;;;220131;1271;22584;-50
2022/01/06 21:50:32;;;;;;;9.60;2.40;;;24.00;44.80;;;;;;220441;1267;22651;-50
2022/01/06 21:55:55;;;;;;;9.80;2.90;;;23.90;45.20;;;;;;220331;1267;22525;-59
2022/01/06 22:01:04;;;;;;;9.20;2.50;;;23.90;45.10;;;;;;220378;1267;26965;-56
2022/01/06 22:06:24;;;;;;;7.00;2.80;;;23.90;44.60;;;;;;220343;1268;24538;-56
2022/01/06 22:11:43;;;;;;;7.90;2.80;;;23.90;45.10;;;;;;220419;1265;24353;-58
2022/01/06 22:16:47;;;;;;;6.70;2.60;;;23.90;45.10;;;;;;220984;1265;25492;-58
2022/01/06 22:22:00;;;;;;;15.60;5.80;;;23.90;45.00;;;;;;220819;1265;25348;-53
2022/01/06 22:27:30;;;;;;;12.20;4.40;;;24.10;46.70;;;;;;220507;1267;22583;-56
2022/01/06 22:32:53;;;;;;;10.30;3.50;;;24.10;47.70;;;;;;221045;1268;24794;-56
2022/01/06 22:38:02;;;;;;;8.70;3.00;;;24.20;47.10;;;;;;220224;1265;25332;-53
2022/01/06 22:43:24;;;;;;;9.00;3.70;;;24.10;46.80;;;;;;220067;1268;22541;-53
2022/01/06 22:48:45;;;;;;;9.60;3.70;;;24.00;46.70;;;;;;220274;1265;25489;-51
2022/01/06 23:00:38;;;;;;;8.00;3.40;;;23.80;47.90;;;;;;214787;1290;950154;-63
2022/01/06 23:05:53;;;;;;;6.70;2.80;;;23.60;47.10;;;;;;215211;1293;24361;-60
2022/01/06 23:10:57;;;;;;;6.10;2.40;;;23.50;47.40;;;;;;215781;1293;22819;-61
2022/01/06 23:16:04;;;;;;;6.50;2.60;;;23.30;47.50;;;;;;215387;1293;22598;-62
2022/01/06 23:21:12;;;;;;;10.90;3.70;;;23.20;47.60;;;;;;215682;1293;24265;-60
2022/01/06 23:26:20;;;;;;;12.10;2.90;;;23.20;48.00;;;;;;215138;1293;25528;-58
2022/01/06 23:31:35;;;;;;;8.50;3.30;;;23.10;48.50;;;;;;215683;1293;25685;-59
2022/01/06 23:36:43;;;;;;;9.70;3.20;;;23.00;48.70;;;;;;215290;1292;24361;-60
2022/01/06 23:41:48;;;;;;;7.50;3.50;;;22.90;48.80;;;;;;215459;1293;22608;-61
2022/01/06 23:46:58;;;;;;;;;;;22.80;48.90;;;;;;215658;1293;24323;-58
2022/01/06 23:52:12;;;;;;;7.20;3.20;;;22.70;49.00;;;;;;215484;1292;25398;-59
2022/01/06 23:57:33;;;;;;;13.80;8.00;;;22.60;49.50;;;;;;215391;1293;22589;-58
